Avoca, Texas
Current Conditions -  °F | °C
As of 3:52 AM on Sunday 26 Oct 2014 (Local Time) from KABI Reporting Station
Clear Clear  
Wind Chill: 19°   Ceiling: Unl
Heat Index: 19°   Visibility: 10mi
Dew Point: 11°   Wind: 10mph
Humidity: 60%   Direction: 210°SSW
Pressure: 30.03"   Gusts: NA
Location:  32.87°N, 99.72°W
Report Text: KABI 260852Z 21009KT 10SM CLR 19/11 A3003 RMK AO2 SLP144 T01890111 58011 $
Loading
Personal Weather Stations






























Interactive Weather Map
Tropical Storm Tracking
New forecast layout! Learn more

10-Day Weather Forecast

Advertisements
Track Severe Weather on mobile